createdAt,value
2023-05-07T00:00:35.133Z,4.40
2023-05-07T00:14:23.954Z,3.88
2023-05-07T00:19:26.175Z,3.90
2023-05-07T00:24:28.289Z,4.15
2023-05-07T00:29:30.388Z,4.00
2023-05-07T00:34:32.447Z,4.72
2023-05-07T00:39:36.197Z,4.63
2023-05-07T00:44:38.302Z,4.47
2023-05-07T00:49:43.449Z,7.05
2023-05-07T00:54:46.053Z,6.28
2023-05-07T00:59:48.299Z,7.00
2023-05-07T01:04:50.361Z,7.13
2023-05-07T01:09:53.153Z,10.73
2023-05-07T01:14:55.714Z,8.80
2023-05-07T01:19:58.025Z,11.15
2023-05-07T01:25:02.585Z,11.25
2023-05-07T01:30:06.593Z,10.65
2023-05-07T01:35:13.017Z,13.45
2023-05-07T01:40:15.576Z,25.23
2023-05-07T01:45:18.000Z,18.73
2023-05-07T01:50:21.712Z,16.55
2023-05-07T01:55:24.609Z,22.08
2023-05-07T02:00:27.526Z,21.02
2023-05-07T02:05:29.600Z,17.88
2023-05-07T02:10:37.267Z,12.80
2023-05-07T02:15:41.753Z,10.23
2023-05-07T02:20:44.070Z,9.68
2023-05-07T02:25:47.054Z,10.93
2023-05-07T02:30:49.207Z,9.20
2023-05-07T02:35:52.996Z,19.00
2023-05-07T02:40:55.309Z,14.70
2023-05-07T02:46:08.528Z,12.23
2023-05-07T02:51:14.220Z,10.82
2023-05-07T02:56:18.320Z,12.20
2023-05-07T03:01:21.894Z,12.02
2023-05-07T03:06:33.833Z,8.63
2023-05-07T03:11:36.760Z,7.05
2023-05-07T03:16:39.556Z,9.00
2023-05-07T03:21:41.708Z,12.07
2023-05-07T03:26:43.771Z,8.88
2023-05-07T03:31:46.486Z,10.32
2023-05-07T03:36:49.987Z,9.77
2023-05-07T03:41:52.421Z,11.20
2023-05-07T03:46:54.565Z,9.60
2023-05-07T03:51:56.830Z,7.28
2023-05-07T03:57:00.155Z,7.30
2023-05-07T04:02:05.240Z,7.80
2023-05-07T04:07:08.473Z,8.55
2023-05-07T04:12:16.712Z,8.80
2023-05-07T04:17:18.978Z,8.48
2023-05-07T04:22:21.090Z,7.47
2023-05-07T04:27:23.284Z,5.93
2023-05-07T04:32:26.097Z,8.20
2023-05-07T04:37:29.052Z,8.18
2023-05-07T04:42:32.277Z,8.65
2023-05-07T04:47:35.815Z,8.13
2023-05-07T04:52:38.983Z,10.10
2023-05-07T04:57:42.450Z,7.53
2023-05-07T05:02:47.474Z,8.70
2023-05-07T05:07:53.998Z,7.45
2023-05-07T05:12:56.709Z,10.45
2023-05-07T05:17:59.892Z,9.98
2023-05-07T05:23:02.359Z,6.97
2023-05-07T05:28:05.939Z,7.07
2023-05-07T05:33:10.084Z,7.95
2023-05-07T05:38:12.552Z,9.00
2023-05-07T05:43:16.375Z,6.97
2023-05-07T05:48:18.903Z,7.35
2023-05-07T05:53:21.709Z,5.50
2023-05-07T05:58:23.936Z,6.25
2023-05-07T06:03:33.648Z,6.03
2023-05-07T06:08:40.047Z,4.25
2023-05-07T06:13:42.508Z,3.13
2023-05-07T06:18:46.328Z,2.50
2023-05-07T06:23:49.443Z,3.80
2023-05-07T06:28:51.750Z,4.60
2023-05-07T06:33:55.134Z,3.80
2023-05-07T06:38:58.857Z,2.73
2023-05-07T06:44:01.043Z,3.00
2023-05-07T06:49:13.396Z,2.05
2023-05-07T06:54:15.798Z,2.25
2023-05-07T06:59:20.480Z,2.22
2023-05-07T07:04:24.139Z,2.78
2023-05-07T07:09:35.248Z,3.92
2023-05-07T07:14:39.218Z,4.25
2023-05-07T07:19:41.638Z,3.85
2023-05-07T07:24:44.711Z,4.03
2023-05-07T07:29:50.064Z,2.97
2023-05-07T07:34:52.238Z,2.95
2023-05-07T07:39:54.522Z,3.88
2023-05-07T07:44:58.321Z,3.67
2023-05-07T07:50:03.607Z,4.38
2023-05-07T07:55:06.449Z,4.22
2023-05-07T08:00:10.544Z,4.22
2023-05-07T08:05:18.779Z,2.85
2023-05-07T08:10:22.970Z,4.43
2023-05-07T08:15:29.815Z,4.68
2023-05-07T08:20:32.507Z,3.17
2023-05-07T08:25:35.669Z,2.80
2023-05-07T08:30:38.467Z,4.70
2023-05-07T08:35:41.415Z,3.88
2023-05-07T08:40:44.796Z,4.45
2023-05-07T08:45:56.596Z,2.90
2023-05-07T08:51:03.491Z,2.60
2023-05-07T08:56:06.810Z,3.58
2023-05-07T09:01:14.223Z,2.30
2023-05-07T09:06:18.477Z,3.08
2023-05-07T09:11:25.096Z,4.90
2023-05-07T09:16:31.589Z,3.35
2023-05-07T09:26:40.845Z,3.55
2023-05-07T09:31:44.276Z,2.63
2023-05-07T09:36:51.206Z,4.13
2023-05-07T09:41:55.580Z,2.35
2023-05-07T09:47:09.512Z,2.17
2023-05-07T09:52:18.124Z,4.68
2023-05-07T09:57:26.218Z,2.97
2023-05-07T10:02:36.495Z,2.15
2023-05-07T10:07:39.157Z,3.53
2023-05-07T10:12:44.746Z,4.22
2023-05-07T10:17:57.326Z,2.70
2023-05-07T10:23:01.426Z,2.85
2023-05-07T10:28:13.316Z,4.47
2023-05-07T10:33:23.317Z,2.65
2023-05-07T10:38:26.513Z,3.33
2023-05-07T10:43:42.094Z,4.07
2023-05-07T10:49:04.440Z,2.55
2023-05-07T10:54:20.931Z,2.97
2023-05-07T10:59:41.801Z,3.05
2023-05-07T11:05:24.949Z,3.40
2023-05-07T11:10:51.794Z,4.80
2023-05-07T11:16:04.537Z,3.58
2023-05-07T11:21:13.722Z,4.15
2023-05-07T11:26:23.553Z,4.63
2023-05-07T11:31:29.688Z,2.40
2023-05-07T11:36:34.842Z,4.00
2023-05-07T11:41:39.704Z,2.85
2023-05-07T11:46:45.764Z,4.25
2023-05-07T11:51:48.063Z,3.60
2023-05-07T11:56:50.423Z,2.80
2023-05-07T12:01:52.476Z,2.70
2023-05-07T12:06:57.437Z,3.03
2023-05-07T12:12:07.192Z,3.77
2023-05-07T12:17:10.864Z,1.77
2023-05-07T12:22:13.922Z,2.03
2023-05-07T12:27:17.666Z,1.58
2023-05-07T12:32:23.604Z,2.35
2023-05-07T12:37:27.914Z,4.22
2023-05-07T12:42:37.722Z,4.15
2023-05-07T12:47:40.461Z,3.03
2023-05-07T12:52:43.829Z,2.47
2023-05-07T12:57:53.839Z,6.20
2023-05-07T13:02:56.100Z,4.03
2023-05-07T13:07:58.439Z,3.35
2023-05-07T13:13:00.778Z,5.93
2023-05-07T13:18:03.761Z,2.92
2023-05-07T13:23:05.934Z,5.05
2023-05-07T13:28:11.290Z,3.55
2023-05-07T13:33:14.024Z,1.90
2023-05-07T13:38:17.178Z,3.25
2023-05-07T13:43:19.882Z,2.78
2023-05-07T13:48:21.986Z,7.35
2023-05-07T13:53:24.347Z,4.00
2023-05-07T13:58:26.573Z,3.20
2023-05-07T14:03:28.732Z,4.28
2023-05-07T14:08:31.634Z,3.05
2023-05-07T14:13:35.417Z,4.05
2023-05-07T14:18:39.623Z,2.15
2023-05-07T14:23:41.837Z,4.70
2023-05-07T14:28:47.387Z,3.17
2023-05-07T14:33:50.937Z,2.42
2023-05-07T14:38:56.912Z,2.97
2023-05-07T14:43:59.954Z,4.07
2023-05-07T14:49:03.512Z,2.90
2023-05-07T14:54:05.662Z,6.93
2023-05-07T14:59:08.644Z,3.63
2023-05-07T15:04:10.954Z,1.88
2023-05-07T15:09:13.181Z,1.05
2023-05-07T15:14:15.644Z,2.25
2023-05-07T15:19:18.101Z,1.95
2023-05-07T15:24:20.454Z,1.38
2023-05-07T15:29:22.687Z,4.45
2023-05-07T15:34:25.255Z,4.38
2023-05-07T15:39:27.415Z,2.63
2023-05-07T15:44:32.084Z,2.13
2023-05-07T15:49:35.074Z,2.30
2023-05-07T15:54:38.674Z,1.05
2023-05-07T15:59:40.895Z,4.03
2023-05-07T16:04:43.025Z,2.65
2023-05-07T16:09:45.891Z,2.70
2023-05-07T16:14:47.937Z,2.95
2023-05-07T16:19:51.894Z,2.95
2023-05-07T16:24:53.956Z,4.55
2023-05-07T16:29:56.108Z,2.22
2023-05-07T16:34:58.216Z,2.47
2023-05-07T16:40:07.515Z,3.97
2023-05-07T16:45:10.173Z,3.33
2023-05-07T16:50:12.230Z,1.80
2023-05-07T16:55:14.744Z,1.92
2023-05-07T17:00:17.277Z,1.42
2023-05-07T17:05:19.864Z,3.70
2023-05-07T17:10:22.071Z,2.78
2023-05-07T17:15:24.177Z,2.25
2023-05-07T17:20:27.207Z,3.28
2023-05-07T17:25:29.281Z,1.80
2023-05-07T17:30:31.491Z,2.15
2023-05-07T17:35:33.968Z,1.35
2023-05-07T17:40:36.079Z,1.05
2023-05-07T17:45:38.308Z,2.55
2023-05-07T17:50:40.430Z,2.88
2023-05-07T17:55:46.004Z,3.50
2023-05-07T18:00:48.364Z,5.18
2023-05-07T18:05:50.978Z,3.50
2023-05-07T18:10:53.313Z,3.72
2023-05-07T18:15:55.489Z,1.70
2023-05-07T18:20:58.450Z,3.33
2023-05-07T18:26:00.644Z,3.88
2023-05-07T18:31:03.037Z,2.58
2023-05-07T18:36:05.534Z,2.03
2023-05-07T18:41:07.592Z,3.17
2023-05-07T18:46:09.742Z,3.40
2023-05-07T18:51:12.783Z,3.20
2023-05-07T18:56:14.904Z,4.07
2023-05-07T19:01:17.074Z,4.53
2023-05-07T19:06:21.190Z,4.43
2023-05-07T19:11:24.062Z,3.10
2023-05-07T19:16:26.178Z,4.55
2023-05-07T19:21:28.746Z,4.68
2023-05-07T19:26:30.917Z,6.10
2023-05-07T19:31:36.232Z,4.25
2023-05-07T19:36:38.301Z,2.78
2023-05-07T19:41:41.983Z,4.20
2023-05-07T19:46:46.279Z,5.50
2023-05-07T19:51:48.335Z,3.75
2023-05-07T19:56:50.390Z,4.30
2023-05-07T20:01:52.908Z,3.53
2023-05-07T20:06:55.117Z,5.13
2023-05-07T20:11:58.417Z,2.92
2023-05-07T20:17:00.559Z,4.05
2023-05-07T20:22:02.788Z,2.85
2023-05-07T20:27:05.588Z,3.95
2023-05-07T20:32:07.935Z,3.17
2023-05-07T20:37:14.250Z,2.97
2023-05-07T20:42:16.468Z,2.38
2023-05-07T20:47:18.586Z,3.03
2023-05-07T20:52:21.163Z,3.42
2023-05-07T20:57:23.353Z,3.67
2023-05-07T21:02:25.581Z,3.00
2023-05-07T21:07:27.656Z,3.58
2023-05-07T21:12:29.689Z,2.55
2023-05-07T21:17:33.583Z,3.58
2023-05-07T21:22:35.924Z,2.35
2023-05-07T21:27:38.015Z,3.22
2023-05-07T21:32:40.718Z,2.35
2023-05-07T21:37:42.817Z,4.38
2023-05-07T21:42:44.960Z,3.20
2023-05-07T21:47:47.106Z,2.83
2023-05-07T21:52:49.791Z,2.88
2023-05-07T21:58:04.065Z,2.58
2023-05-07T22:03:07.549Z,2.78
2023-05-07T22:08:09.855Z,2.20
2023-05-07T22:13:12.210Z,3.20
2023-05-07T22:18:14.456Z,1.73
2023-05-07T22:23:16.582Z,2.42
2023-05-07T22:28:18.686Z,1.85
2023-05-07T22:33:20.894Z,3.10
2023-05-07T22:38:23.017Z,2.30
2023-05-07T22:43:25.592Z,2.33
2023-05-07T22:48:28.844Z,2.97
2023-05-07T22:53:30.994Z,2.33
2023-05-07T22:58:34.084Z,4.13
2023-05-07T23:03:36.208Z,1.90
2023-05-07T23:08:38.347Z,2.15
2023-05-07T23:13:40.542Z,2.05
2023-05-07T23:18:42.609Z,2.55
2023-05-07T23:23:44.725Z,2.40
2023-05-07T23:28:46.819Z,3.45
2023-05-07T23:33:48.930Z,3.88
2023-05-07T23:38:51.028Z,3.10
2023-05-07T23:43:53.085Z,2.42
2023-05-07T23:48:55.168Z,2.05
2023-05-07T23:53:57.246Z,2.33
2023-05-07T23:58:59.746Z,2.10
